createdAt,value
2018-03-15T00:00:40.612Z,82.20
2018-03-15T00:01:40.602Z,82.20
2018-03-15T00:02:40.593Z,82.29
2018-03-15T00:03:40.583Z,82.39
2018-03-15T00:04:40.574Z,82.58
2018-03-15T00:05:40.565Z,82.10
2018-03-15T00:06:40.557Z,82.49
2018-03-15T00:07:40.549Z,82.10
2018-03-15T00:08:40.540Z,82.29
2018-03-15T00:09:40.532Z,82.01
2018-03-15T00:10:40.523Z,82.10
2018-03-15T00:11:40.518Z,82.20
2018-03-15T00:12:40.508Z,82.68
2018-03-15T00:13:40.501Z,82.58
2018-03-15T00:14:40.493Z,82.29
2018-03-15T00:15:40.482Z,82.87
2018-03-15T00:16:40.473Z,82.49
2018-03-15T00:17:40.463Z,82.49
2018-03-15T00:18:40.456Z,82.49
2018-03-15T00:19:40.450Z,82.20
2018-03-15T00:20:40.440Z,82.29
2018-03-15T00:21:40.433Z,82.20
2018-03-15T00:22:40.423Z,82.29
2018-03-15T00:23:40.417Z,82.20
2018-03-15T00:24:40.406Z,82.49
2018-03-15T00:25:40.398Z,82.58
2018-03-15T00:26:40.412Z,82.49
2018-03-15T00:27:40.380Z,82.49
2018-03-15T00:28:40.369Z,82.49
2018-03-15T00:29:40.361Z,82.49
2018-03-15T00:30:40.356Z,82.20
2018-03-15T00:31:40.352Z,82.20
2018-03-15T00:32:40.335Z,82.68
2018-03-15T00:33:40.327Z,82.49
2018-03-15T00:34:40.318Z,82.58
2018-03-15T00:35:40.313Z,82.58
2018-03-15T00:36:40.311Z,82.96
2018-03-15T00:37:40.296Z,83.15
2018-03-15T00:38:40.288Z,83.06
2018-03-15T00:39:40.339Z,82.87
2018-03-15T00:40:40.269Z,82.96
2018-03-15T00:41:40.260Z,82.58
2018-03-15T00:42:40.254Z,82.77
2018-03-15T00:43:40.241Z,82.49
2018-03-15T00:44:40.233Z,82.96
2018-03-15T00:45:40.224Z,83.06
2018-03-15T00:46:40.215Z,82.49
2018-03-15T00:47:40.207Z,82.49
2018-03-15T00:48:40.197Z,83.06
2018-03-15T00:49:40.189Z,82.58
2018-03-15T00:50:40.181Z,82.58
2018-03-15T00:51:40.174Z,82.77
2018-03-15T00:52:40.166Z,82.77
2018-03-15T00:53:40.158Z,82.96
2018-03-15T00:54:40.149Z,83.06
2018-03-15T00:55:40.140Z,82.68
2018-03-15T00:56:40.130Z,83.15
2018-03-15T00:57:40.122Z,83.30
2018-03-15T00:58:40.113Z,83.44
2018-03-15T00:59:40.104Z,83.91
2018-03-15T01:00:40.096Z,83.72
2018-03-15T01:01:40.085Z,83.72
2018-03-15T01:02:40.077Z,83.87
2018-03-15T01:03:40.069Z,83.91
2018-03-15T01:04:40.059Z,83.82
2018-03-15T01:05:40.054Z,83.82
2018-03-15T01:06:40.085Z,83.82
2018-03-15T01:07:40.038Z,84.01
2018-03-15T01:08:40.028Z,83.78
2018-03-15T01:09:40.018Z,83.72
2018-03-15T01:10:40.010Z,83.62
2018-03-15T01:11:40.001Z,83.91
2018-03-15T01:12:39.994Z,83.72
2018-03-15T01:13:39.983Z,83.91
2018-03-15T01:14:39.976Z,83.91
2018-03-15T01:15:39.964Z,83.82
2018-03-15T01:16:39.958Z,83.44
2018-03-15T01:17:39.946Z,83.44
2018-03-15T01:18:39.938Z,83.53
2018-03-15T01:19:39.929Z,83.34
2018-03-15T01:20:39.920Z,83.91
2018-03-15T01:21:39.914Z,83.62
2018-03-15T01:22:39.909Z,84.10
2018-03-15T01:23:39.897Z,84.01
2018-03-15T01:24:39.889Z,83.87
2018-03-15T01:25:39.880Z,84.06
2018-03-15T01:26:39.871Z,84.10
2018-03-15T01:27:39.862Z,84.10
2018-03-15T01:28:39.854Z,83.82
2018-03-15T01:29:39.847Z,83.91
2018-03-15T01:30:39.836Z,83.53
2018-03-15T01:31:39.825Z,83.97
2018-03-15T01:32:39.815Z,84.44
2018-03-15T01:33:39.807Z,84.25
2018-03-15T01:34:39.798Z,84.25
2018-03-15T01:35:39.790Z,84.44
2018-03-15T01:36:39.780Z,84.39
2018-03-15T01:37:39.772Z,84.10
2018-03-15T01:38:39.764Z,84.06
2018-03-15T01:39:39.757Z,84.25
2018-03-15T01:40:39.748Z,84.72
2018-03-15T01:41:39.738Z,84.63
2018-03-15T01:42:39.730Z,84.82
2018-03-15T01:43:39.722Z,84.34
2018-03-15T01:44:39.712Z,84.44
2018-03-15T01:45:39.705Z,84.72
2018-03-15T01:46:39.696Z,84.72
2018-03-15T01:47:39.685Z,84.16
2018-03-15T01:48:39.674Z,84.53
2018-03-15T01:49:39.667Z,84.25
2018-03-15T01:50:39.656Z,84.72
2018-03-15T01:51:39.648Z,84.53
2018-03-15T01:52:39.639Z,84.72
2018-03-15T01:53:39.631Z,84.53
2018-03-15T01:54:39.625Z,84.63
2018-03-15T01:55:39.616Z,84.34
2018-03-15T01:56:39.606Z,84.63
2018-03-15T01:57:39.598Z,84.82
2018-03-15T01:58:39.589Z,84.25
2018-03-15T01:59:39.581Z,84.25
2018-03-15T02:00:39.570Z,84.25
2018-03-15T02:01:39.562Z,83.87
2018-03-15T02:02:39.553Z,84.82
2018-03-15T02:03:39.542Z,84.82
2018-03-15T02:04:39.532Z,84.63
2018-03-15T02:05:39.523Z,84.82
2018-03-15T02:06:39.514Z,84.72
2018-03-15T02:07:39.505Z,84.16
2018-03-15T02:08:39.496Z,84.53
2018-03-15T02:09:39.487Z,84.53
2018-03-15T02:10:39.477Z,84.72
2018-03-15T02:11:39.473Z,84.44
2018-03-15T02:12:39.462Z,84.82
2018-03-15T02:13:39.457Z,84.91
2018-03-15T02:14:39.444Z,84.34
2018-03-15T02:15:39.436Z,84.34
2018-03-15T02:16:39.429Z,84.63
2018-03-15T02:17:39.417Z,84.72
2018-03-15T02:18:39.409Z,84.53
2018-03-15T02:19:39.397Z,84.44
2018-03-15T02:20:39.389Z,84.91
2018-03-15T02:21:39.379Z,85.11
2018-03-15T02:22:39.369Z,84.82
2018-03-15T02:23:39.363Z,84.82
2018-03-15T02:24:39.355Z,84.53
2018-03-15T02:25:39.347Z,84.72
2018-03-15T02:26:39.339Z,84.82
2018-03-15T02:27:39.325Z,84.16
2018-03-15T02:28:39.316Z,83.68
2018-03-15T02:29:39.306Z,83.78
2018-03-15T02:30:39.297Z,83.68
2018-03-15T02:31:39.288Z,83.68
2018-03-15T02:32:39.277Z,83.78
2018-03-15T02:33:39.270Z,83.39
2018-03-15T02:34:39.260Z,83.78
2018-03-15T02:35:39.254Z,83.78
2018-03-15T02:36:39.244Z,83.78
2018-03-15T02:37:39.236Z,83.39
2018-03-15T02:38:39.226Z,83.20
2018-03-15T02:39:39.217Z,83.59
2018-03-15T02:40:39.210Z,83.59
2018-03-15T02:41:39.200Z,83.49
2018-03-15T02:42:39.190Z,83.30
2018-03-15T02:43:39.178Z,83.30
2018-03-15T02:44:39.169Z,84.06
2018-03-15T02:45:39.161Z,83.39
2018-03-15T02:46:39.150Z,83.49
2018-03-15T02:47:39.142Z,82.92
2018-03-15T02:48:39.132Z,82.73
2018-03-15T02:49:39.123Z,83.11
2018-03-15T02:50:39.112Z,83.39
2018-03-15T02:51:39.108Z,82.73
2018-03-15T02:52:39.098Z,82.73
2018-03-15T02:53:39.088Z,82.54
2018-03-15T02:54:39.091Z,82.73
2018-03-15T02:55:39.077Z,83.39
2018-03-15T02:56:39.061Z,83.30
2018-03-15T02:57:39.051Z,82.35
2018-03-15T02:58:39.043Z,82.45
2018-03-15T02:59:39.032Z,83.11
2018-03-15T03:00:39.021Z,82.54
2018-03-15T03:01:39.012Z,82.45
2018-03-15T03:02:39.006Z,82.54
2018-03-15T03:03:38.994Z,82.54
2018-03-15T03:04:38.985Z,83.01
2018-03-15T03:05:38.975Z,83.11
2018-03-15T03:06:38.966Z,83.01
2018-03-15T03:07:38.960Z,82.64
2018-03-15T03:08:38.951Z,82.73
2018-03-15T03:09:38.941Z,82.92
2018-03-15T03:10:38.931Z,82.82
2018-03-15T03:11:38.922Z,82.73
2018-03-15T03:12:38.914Z,82.82
2018-03-15T03:13:38.905Z,83.01
2018-03-15T03:14:38.894Z,82.73
2018-03-15T03:15:38.883Z,82.82
2018-03-15T03:16:38.873Z,82.54
2018-03-15T03:17:38.864Z,82.73
2018-03-15T03:18:38.856Z,82.45
2018-03-15T03:19:38.845Z,82.64
2018-03-15T03:20:38.841Z,82.54
2018-03-15T03:21:38.826Z,82.82
2018-03-15T03:22:38.817Z,83.01
2018-03-15T03:23:38.811Z,82.82
2018-03-15T03:24:38.803Z,82.82
2018-03-15T03:25:38.791Z,82.92
2018-03-15T03:26:38.783Z,83.11
2018-03-15T03:27:38.774Z,82.92
2018-03-15T03:28:38.760Z,82.54
2018-03-15T03:29:38.752Z,83.11
2018-03-15T03:30:38.744Z,83.11
2018-03-15T03:31:38.737Z,83.01
2018-03-15T03:32:38.729Z,82.92
2018-03-15T03:33:38.721Z,82.35
2018-03-15T03:34:38.708Z,82.45
2018-03-15T03:35:38.699Z,82.45
2018-03-15T03:36:38.689Z,82.35
2018-03-15T03:37:38.679Z,82.64
2018-03-15T03:38:38.671Z,82.07
2018-03-15T03:39:38.659Z,81.87
2018-03-15T03:40:38.649Z,82.35
2018-03-15T03:41:38.640Z,82.45
2018-03-15T03:42:38.631Z,81.87
2018-03-15T03:43:38.622Z,82.26
2018-03-15T03:44:38.610Z,82.07
2018-03-15T03:45:38.603Z,81.97
2018-03-15T03:46:38.593Z,81.87
2018-03-15T03:47:38.591Z,82.45
2018-03-15T03:48:38.579Z,81.87
2018-03-15T03:49:38.567Z,81.87
2018-03-15T03:50:38.558Z,81.87
2018-03-15T03:51:38.549Z,81.68
2018-03-15T03:52:38.538Z,81.97
2018-03-15T03:53:38.533Z,81.40
2018-03-15T03:54:38.520Z,81.97
2018-03-15T03:55:38.509Z,82.07
2018-03-15T03:56:38.498Z,81.87
2018-03-15T03:57:38.489Z,81.78
2018-03-15T03:58:38.481Z,81.87
2018-03-15T03:59:38.475Z,81.49
2018-03-15T04:00:38.461Z,81.78
2018-03-15T04:01:38.452Z,81.40
2018-03-15T04:02:38.441Z,81.87
2018-03-15T04:03:38.437Z,81.78
2018-03-15T04:04:38.426Z,81.68
2018-03-15T04:05:38.416Z,81.68
2018-03-15T04:06:38.407Z,81.97
2018-03-15T04:07:38.398Z,81.87
2018-03-15T04:08:38.387Z,81.78
2018-03-15T04:09:38.379Z,81.59
2018-03-15T04:10:38.370Z,81.87
2018-03-15T04:11:38.361Z,81.59
2018-03-15T04:12:38.347Z,81.59
2018-03-15T04:13:38.339Z,81.49
2018-03-15T04:14:38.330Z,81.30
2018-03-15T04:15:38.320Z,81.21
2018-03-15T04:16:38.312Z,81.30
2018-03-15T04:17:38.301Z,81.30
2018-03-15T04:18:38.291Z,81.68
2018-03-15T04:19:38.285Z,81.30
2018-03-15T04:20:38.276Z,81.12
2018-03-15T04:21:38.266Z,81.21
2018-03-15T04:22:38.257Z,81.30
2018-03-15T04:23:38.249Z,81.30
2018-03-15T04:24:38.237Z,81.02
2018-03-15T04:25:38.231Z,81.30
2018-03-15T04:26:38.218Z,81.40
2018-03-15T04:27:38.207Z,81.40
2018-03-15T04:28:38.200Z,80.74
2018-03-15T04:29:38.187Z,80.45
2018-03-15T04:30:38.178Z,80.45
2018-03-15T04:31:38.172Z,80.45
2018-03-15T04:32:38.161Z,80.45
2018-03-15T04:33:38.153Z,80.55
2018-03-15T04:34:38.147Z,80.55
2018-03-15T04:35:38.131Z,80.35
2018-03-15T04:36:38.120Z,80.74
2018-03-15T04:37:38.110Z,80.64
2018-03-15T04:38:38.102Z,80.55
2018-03-15T04:39:38.093Z,80.64
2018-03-15T04:40:38.083Z,80.45
2018-03-15T04:41:38.072Z,80.64
2018-03-15T04:42:38.064Z,80.74
2018-03-15T04:43:38.057Z,80.55
2018-03-15T04:44:38.047Z,80.45
2018-03-15T04:45:38.039Z,80.45
2018-03-15T04:46:38.031Z,80.74
2018-03-15T04:47:38.032Z,80.55
2018-03-15T04:48:38.010Z,80.35
2018-03-15T04:49:38.000Z,80.74
2018-03-15T04:50:37.990Z,80.55
2018-03-15T04:51:37.978Z,80.55
2018-03-15T04:52:37.968Z,80.35
2018-03-15T04:53:37.959Z,80.35
2018-03-15T04:54:37.950Z,80.45
2018-03-15T04:55:37.941Z,80.45
2018-03-15T04:56:37.932Z,80.45
2018-03-15T04:57:37.921Z,80.45
2018-03-15T04:58:37.912Z,80.45
2018-03-15T04:59:37.904Z,80.35
2018-03-15T05:00:37.895Z,80.64
2018-03-15T05:01:37.886Z,80.55
2018-03-15T05:02:37.876Z,80.55
2018-03-15T05:03:37.866Z,80.07
2018-03-15T05:04:37.855Z,80.64
2018-03-15T05:05:37.847Z,80.64
2018-03-15T05:06:37.838Z,80.55
2018-03-15T05:07:37.827Z,80.07
2018-03-15T05:08:37.816Z,80.64
2018-03-15T05:09:37.806Z,80.64
2018-03-15T05:10:37.798Z,80.55
2018-03-15T05:11:37.802Z,80.55
2018-03-15T05:12:37.815Z,80.74
2018-03-15T05:13:37.768Z,80.64
2018-03-15T05:14:37.758Z,80.64
2018-03-15T05:15:37.752Z,80.26
2018-03-15T05:16:37.742Z,80.64
2018-03-15T05:17:37.736Z,80.64
2018-03-15T05:18:37.723Z,80.55
2018-03-15T05:19:37.715Z,80.83
2018-03-15T05:20:37.708Z,80.26
2018-03-15T05:21:37.694Z,80.45
2018-03-15T05:22:37.685Z,80.26
2018-03-15T05:23:37.673Z,80.64
2018-03-15T05:24:37.666Z,80.35
2018-03-15T05:25:37.654Z,80.55
2018-03-15T05:26:37.645Z,80.35
2018-03-15T05:27:37.635Z,80.45
2018-03-15T05:28:37.628Z,80.64
2018-03-15T05:29:37.620Z,80.64
2018-03-15T05:30:37.606Z,80.64
2018-03-15T05:31:37.599Z,80.45
2018-03-15T05:32:37.590Z,80.45
2018-03-15T05:33:37.581Z,80.35
2018-03-15T05:34:37.571Z,80.45
2018-03-15T05:35:37.560Z,80.64
2018-03-15T05:36:37.551Z,80.55
2018-03-15T05:37:37.541Z,80.45
2018-03-15T05:38:37.529Z,80.16
2018-03-15T05:39:37.524Z,80.55
2018-03-15T05:40:37.513Z,80.16
2018-03-15T05:41:37.506Z,79.97
2018-03-15T05:42:37.495Z,79.41
2018-03-15T05:43:37.486Z,80.16
2018-03-15T05:44:37.476Z,79.41
2018-03-15T05:45:37.466Z,79.97
2018-03-15T05:46:37.458Z,79.41
2018-03-15T05:47:37.448Z,79.97
2018-03-15T05:48:37.435Z,79.97
2018-03-15T05:49:37.431Z,80.16
2018-03-15T05:50:37.417Z,79.97
2018-03-15T05:51:37.408Z,79.69
2018-03-15T05:52:37.398Z,79.97
2018-03-15T05:53:37.389Z,79.97
2018-03-15T05:54:37.379Z,80.07
2018-03-15T05:55:37.375Z,79.60
2018-03-15T05:56:37.365Z,79.60
2018-03-15T05:57:37.354Z,80.07
2018-03-15T05:58:37.350Z,79.97
2018-03-15T05:59:37.337Z,79.31
2018-03-15T06:00:37.329Z,79.41
2018-03-15T06:01:37.317Z,79.31
2018-03-15T06:02:37.309Z,79.12
2018-03-15T06:03:37.297Z,79.12
2018-03-15T06:04:37.287Z,79.03
2018-03-15T06:05:37.278Z,79.25
2018-03-15T06:06:37.269Z,79.12
2018-03-15T06:07:37.277Z,79.25
2018-03-15T06:08:37.250Z,79.54
2018-03-15T06:09:37.241Z,78.78
2018-03-15T06:10:37.232Z,78.97
2018-03-15T06:11:37.225Z,78.69
2018-03-15T06:12:37.216Z,78.78
2018-03-15T06:13:37.206Z,78.69
2018-03-15T06:14:37.199Z,77.87
2018-03-15T06:15:37.190Z,77.34
2018-03-15T06:16:37.179Z,76.81
2018-03-15T06:17:37.171Z,75.47
2018-03-15T06:18:37.162Z,74.43
2018-03-15T06:19:37.152Z,73.28
2018-03-15T06:20:37.143Z,73.28
2018-03-15T06:21:37.134Z,72.81
2018-03-15T06:22:37.126Z,71.86
2018-03-15T06:23:37.119Z,71.86
2018-03-15T06:24:37.110Z,71.82
2018-03-15T06:25:37.103Z,71.82
2018-03-15T06:26:37.096Z,72.20
2018-03-15T06:27:37.091Z,72.05
2018-03-15T06:28:37.086Z,72.33
2018-03-15T06:29:37.076Z,71.76
2018-03-15T06:30:37.068Z,71.70
2018-03-15T06:31:37.061Z,71.19
2018-03-15T06:32:37.055Z,70.81
2018-03-15T06:33:37.047Z,71.19
2018-03-15T06:34:37.041Z,71.00
2018-03-15T06:35:37.031Z,70.08
2018-03-15T06:36:37.023Z,70.18
2018-03-15T06:37:37.017Z,69.35
2018-03-15T06:38:37.011Z,68.78
2018-03-15T06:39:37.006Z,68.34
2018-03-15T06:40:37.000Z,67.58
2018-03-15T06:41:36.993Z,67.10
2018-03-15T06:42:36.987Z,66.53
2018-03-15T06:43:36.980Z,66.66
2018-03-15T06:44:36.972Z,66.02
2018-03-15T06:45:36.967Z,65.42
2018-03-15T06:46:36.962Z,65.04
2018-03-15T06:47:36.956Z,64.59
2018-03-15T06:48:36.951Z,64.34
2018-03-15T06:49:36.950Z,63.39
2018-03-15T06:50:36.942Z,62.34
2018-03-15T06:51:36.941Z,61.29
2018-03-15T06:52:36.935Z,61.76
2018-03-15T06:53:36.930Z,61.10
2018-03-15T06:54:36.927Z,61.22
2018-03-15T06:55:36.924Z,60.84
2018-03-15T06:56:36.919Z,59.78
2018-03-15T06:57:36.916Z,59.53
2018-03-15T06:58:36.913Z,58.93
2018-03-15T06:59:36.907Z,58.86
2018-03-15T07:00:36.904Z,58.12
2018-03-15T07:01:36.905Z,57.65
2018-03-15T07:02:36.899Z,56.67
2018-03-15T07:03:36.899Z,56.47
2018-03-15T07:04:36.893Z,56.50
2018-03-15T07:05:36.892Z,56.02
2018-03-15T07:06:36.891Z,55.76
2018-03-15T07:07:36.892Z,55.45
2018-03-15T07:08:36.889Z,54.88
2018-03-15T07:09:36.888Z,55.10
2018-03-15T07:10:36.889Z,54.93
2018-03-15T07:11:36.887Z,54.28
2018-03-15T07:12:36.885Z,53.86
2018-03-15T07:13:36.886Z,52.18
2018-03-15T07:14:36.885Z,52.13
2018-03-15T07:15:36.882Z,52.15
2018-03-15T07:16:36.929Z,52.03
2018-03-15T07:17:36.881Z,52.34
2018-03-15T07:18:36.882Z,52.25
2018-03-15T07:19:36.882Z,51.70
2018-03-15T07:20:36.882Z,51.79
2018-03-15T07:21:36.884Z,51.15
2018-03-15T07:22:36.885Z,50.77
2018-03-15T07:23:36.888Z,50.43
2018-03-15T07:24:36.888Z,50.81
2018-03-15T07:25:36.890Z,50.91
2018-03-15T07:26:36.892Z,51.17
2018-03-15T07:27:36.892Z,51.75
2018-03-15T07:28:36.893Z,51.84
2018-03-15T07:29:36.894Z,51.27
2018-03-15T07:30:36.896Z,52.03
2018-03-15T07:31:36.895Z,52.15
2018-03-15T07:32:36.903Z,51.93
2018-03-15T07:33:36.897Z,51.92
2018-03-15T07:34:36.902Z,50.99
2018-03-15T07:35:36.900Z,50.63
2018-03-15T07:36:36.901Z,50.08
2018-03-15T07:37:36.903Z,48.88
2018-03-15T07:38:36.904Z,46.86
2018-03-15T07:39:36.911Z,45.95
2018-03-15T07:40:36.912Z,44.79
2018-03-15T07:41:36.913Z,43.70
2018-03-15T07:42:36.916Z,43.38
2018-03-15T07:43:36.917Z,43.55
2018-03-15T07:44:36.920Z,44.54
2018-03-15T07:45:36.922Z,44.34
2018-03-15T07:46:36.925Z,43.57
2018-03-15T07:47:36.933Z,44.49
2018-03-15T07:48:36.935Z,44.13
2018-03-15T07:49:36.939Z,44.51
2018-03-15T07:50:36.942Z,44.34
2018-03-15T07:51:36.947Z,43.82
2018-03-15T07:52:36.950Z,44.42
2018-03-15T07:53:36.958Z,44.40
2018-03-15T07:54:36.958Z,44.33
2018-03-15T07:55:36.961Z,45.69
2018-03-15T07:56:36.964Z,46.22
2018-03-15T07:57:36.970Z,45.40
2018-03-15T07:58:36.973Z,45.01
2018-03-15T07:59:36.981Z,44.48
2018-03-15T08:00:36.987Z,43.35
2018-03-15T08:01:36.985Z,42.97
2018-03-15T08:02:36.991Z,42.68
2018-03-15T08:03:36.998Z,42.37
2018-03-15T08:04:37.002Z,41.96
2018-03-15T08:05:37.007Z,42.33
2018-03-15T08:06:37.013Z,43.31
2018-03-15T08:07:37.020Z,42.88
2018-03-15T08:08:37.022Z,42.88
2018-03-15T08:09:37.027Z,43.00
2018-03-15T08:10:37.032Z,43.36
2018-03-15T08:11:37.035Z,43.67
2018-03-15T08:12:37.039Z,43.62
2018-03-15T08:13:37.045Z,43.38
2018-03-15T08:14:37.075Z,43.36
2018-03-15T08:15:37.056Z,43.19
2018-03-15T08:16:37.059Z,43.07
2018-03-15T08:17:37.064Z,43.60
2018-03-15T08:18:37.068Z,43.12
2018-03-15T08:19:37.077Z,43.12
2018-03-15T08:20:37.111Z,43.07
2018-03-15T08:21:37.087Z,43.15
2018-03-15T08:22:37.092Z,43.57
2018-03-15T08:23:37.100Z,43.07
2018-03-15T08:24:37.101Z,42.82
2018-03-15T08:25:37.107Z,44.54
2018-03-15T08:26:37.114Z,45.67
2018-03-15T08:27:37.116Z,46.08
2018-03-15T08:28:37.117Z,46.31
2018-03-15T08:29:37.121Z,46.34
2018-03-15T08:30:37.124Z,45.74
2018-03-15T08:31:37.131Z,45.67
2018-03-15T08:32:37.133Z,45.54
2018-03-15T08:33:37.138Z,45.76
2018-03-15T08:34:37.144Z,45.16
2018-03-15T08:35:37.152Z,44.93
2018-03-15T08:36:37.156Z,45.84
2018-03-15T08:37:37.164Z,46.75
2018-03-15T08:38:37.164Z,47.47
2018-03-15T08:39:37.193Z,47.94
2018-03-15T08:40:37.182Z,48.04
2018-03-15T08:41:37.176Z,48.47
2018-03-15T08:42:37.180Z,48.30
2018-03-15T08:43:37.180Z,47.87
2018-03-15T08:44:37.183Z,46.62
2018-03-15T08:45:37.187Z,46.31
2018-03-15T08:46:37.190Z,46.03
2018-03-15T08:47:37.198Z,45.93
2018-03-15T08:48:37.209Z,45.65
2018-03-15T08:49:37.206Z,46.55
2018-03-15T08:50:37.210Z,46.96
2018-03-15T08:51:37.212Z,46.67
2018-03-15T08:52:37.215Z,46.46
2018-03-15T08:53:37.218Z,46.60
2018-03-15T08:54:37.228Z,46.15
2018-03-15T08:55:37.226Z,46.91
2018-03-15T08:56:37.272Z,47.82
2018-03-15T08:57:37.246Z,47.63
2018-03-15T08:58:37.238Z,47.37
2018-03-15T08:59:37.246Z,46.70
2018-03-15T09:00:37.249Z,46.41
2018-03-15T09:01:37.255Z,45.42
2018-03-15T09:02:37.267Z,45.21
2018-03-15T09:03:37.264Z,44.82
2018-03-15T09:04:37.806Z,44.68
2018-03-15T09:05:37.272Z,44.82
2018-03-15T09:06:37.278Z,43.30
2018-03-15T09:07:37.278Z,42.09
2018-03-15T09:08:37.340Z,40.70
2018-03-15T09:09:37.287Z,40.35
2018-03-15T09:10:37.293Z,40.70
2018-03-15T09:11:37.298Z,41.39
2018-03-15T09:12:37.302Z,42.08
2018-03-15T09:13:37.309Z,42.22
2018-03-15T09:14:37.314Z,41.43
2018-03-15T09:15:37.323Z,41.42
2018-03-15T09:16:37.328Z,42.50
2018-03-15T09:17:37.338Z,43.05
2018-03-15T09:18:37.341Z,43.19
2018-03-15T09:19:37.345Z,43.14
2018-03-15T09:20:37.351Z,43.26
2018-03-15T09:21:37.358Z,42.39
2018-03-15T09:22:37.362Z,42.33
2018-03-15T09:23:37.409Z,41.18
2018-03-15T09:24:37.370Z,40.47
2018-03-15T09:25:37.376Z,39.20
2018-03-15T09:26:37.383Z,39.24
2018-03-15T09:27:37.390Z,39.47
2018-03-15T09:28:37.416Z,39.70
2018-03-15T09:29:37.400Z,38.70
2018-03-15T09:30:37.406Z,38.79
2018-03-15T09:31:37.417Z,38.76
2018-03-15T09:32:37.422Z,39.51
2018-03-15T09:33:37.429Z,39.51
2018-03-15T09:34:37.440Z,39.81
2018-03-15T09:35:37.442Z,39.91
2018-03-15T09:36:37.448Z,39.72
2018-03-15T09:37:37.458Z,39.56
2018-03-15T09:38:37.462Z,40.14
2018-03-15T09:39:37.466Z,40.58
2018-03-15T09:40:37.537Z,41.90
2018-03-15T09:41:37.479Z,42.60
2018-03-15T09:42:37.482Z,42.67
2018-03-15T09:43:37.490Z,43.05
2018-03-15T09:44:37.495Z,43.59
2018-03-15T09:45:37.503Z,44.13
2018-03-15T09:46:37.506Z,44.15
2018-03-15T09:47:37.518Z,43.77
2018-03-15T09:48:37.520Z,43.67
2018-03-15T09:49:37.527Z,43.21
2018-03-15T09:50:37.532Z,43.23
2018-03-15T09:51:37.537Z,43.23
2018-03-15T09:52:37.543Z,42.53
2018-03-15T09:53:37.547Z,41.68
2018-03-15T09:54:37.552Z,40.88
2018-03-15T09:55:37.555Z,40.66
2018-03-15T09:56:37.559Z,40.88
2018-03-15T09:57:37.564Z,40.91
2018-03-15T09:58:37.570Z,40.05
2018-03-15T09:59:37.576Z,39.41
2018-03-15T10:00:37.580Z,39.78
2018-03-15T10:01:37.586Z,40.22
2018-03-15T10:02:37.594Z,40.99
2018-03-15T10:03:37.602Z,41.66
2018-03-15T10:04:37.609Z,41.96
2018-03-15T10:05:37.613Z,42.21
2018-03-15T10:06:37.619Z,42.04
2018-03-15T10:07:37.625Z,42.37
2018-03-15T10:08:37.630Z,42.16
2018-03-15T10:09:37.634Z,42.76
2018-03-15T10:10:37.641Z,42.08
2018-03-15T10:11:37.644Z,41.89
2018-03-15T10:12:37.649Z,41.89
2018-03-15T10:13:37.654Z,42.20
2018-03-15T10:14:37.662Z,41.97
2018-03-15T10:15:37.666Z,40.84
2018-03-15T10:16:37.674Z,39.74
2018-03-15T10:17:37.675Z,39.81
2018-03-15T10:18:37.687Z,39.87
2018-03-15T10:19:37.694Z,38.89
2018-03-15T10:20:37.696Z,38.68
2018-03-15T10:21:37.702Z,38.78
2018-03-15T10:22:37.708Z,38.76
2018-03-15T10:23:37.715Z,39.47
2018-03-15T10:24:37.720Z,38.81
2018-03-15T10:25:37.726Z,38.06
2018-03-15T10:26:37.733Z,38.04
2018-03-15T10:27:37.737Z,38.01
2018-03-15T10:28:37.742Z,38.47
2018-03-15T10:29:37.749Z,38.49
2018-03-15T10:30:37.755Z,38.68
2018-03-15T10:31:37.761Z,38.49
2018-03-15T10:32:37.768Z,38.72
2018-03-15T10:33:37.776Z,39.26
2018-03-15T10:34:37.779Z,40.25
2018-03-15T10:35:37.789Z,41.60
2018-03-15T10:36:37.794Z,42.65
2018-03-15T10:37:37.801Z,42.77
2018-03-15T10:38:37.808Z,43.05
2018-03-15T10:39:37.812Z,43.55
2018-03-15T10:40:37.816Z,43.63
2018-03-15T10:41:37.821Z,43.55
2018-03-15T10:42:37.828Z,44.63
2018-03-15T10:43:37.828Z,43.65
2018-03-15T10:44:37.831Z,43.27
2018-03-15T10:45:37.836Z,44.32
2018-03-15T10:46:37.842Z,43.84
2018-03-15T10:47:37.846Z,44.23
2018-03-15T10:48:37.849Z,44.51
2018-03-15T10:49:37.852Z,44.30
2018-03-15T10:50:37.857Z,44.56
2018-03-15T10:51:37.865Z,45.14
2018-03-15T10:52:37.868Z,45.64
2018-03-15T10:53:37.886Z,45.62
2018-03-15T10:54:37.876Z,45.74
2018-03-15T10:55:37.876Z,45.74
2018-03-15T10:56:37.876Z,45.54
2018-03-15T10:57:37.880Z,45.83
2018-03-15T10:58:37.883Z,45.93
2018-03-15T10:59:37.889Z,45.72
2018-03-15T11:00:37.892Z,45.79
2018-03-15T11:01:37.897Z,46.46
2018-03-15T11:02:37.896Z,46.58
2018-03-15T11:03:37.899Z,46.65
2018-03-15T11:04:37.901Z,46.65
2018-03-15T11:05:37.904Z,46.75
2018-03-15T11:06:37.906Z,46.82
2018-03-15T11:07:37.905Z,47.68
2018-03-15T11:08:37.907Z,47.87
2018-03-15T11:09:37.908Z,48.35
2018-03-15T11:10:37.910Z,48.54
2018-03-15T11:11:37.912Z,48.35
2018-03-15T11:12:37.913Z,49.21
2018-03-15T11:13:37.915Z,49.69
2018-03-15T11:14:37.918Z,49.79
2018-03-15T11:15:37.922Z,49.69
2018-03-15T11:16:37.926Z,49.88
2018-03-15T11:17:37.924Z,50.20
2018-03-15T11:18:37.925Z,49.81
2018-03-15T11:19:37.926Z,50.07
2018-03-15T11:20:37.927Z,50.07
2018-03-15T11:21:37.929Z,49.79
2018-03-15T11:22:37.930Z,49.60
2018-03-15T11:23:37.927Z,49.66
2018-03-15T11:24:37.927Z,50.05
2018-03-15T11:25:37.927Z,50.43
2018-03-15T11:26:37.928Z,51.01
2018-03-15T11:27:37.928Z,50.91
2018-03-15T11:28:37.929Z,51.10
2018-03-15T11:29:37.930Z,50.81
2018-03-15T11:30:37.929Z,50.74
2018-03-15T11:31:37.934Z,50.93
2018-03-15T11:32:37.934Z,50.81
2018-03-15T11:33:37.934Z,50.52
2018-03-15T11:34:37.934Z,50.91
2018-03-15T11:35:37.934Z,50.81
2018-03-15T11:36:37.935Z,50.84
2018-03-15T11:37:37.934Z,50.56
2018-03-15T11:38:37.999Z,50.43
2018-03-15T11:39:37.931Z,50.52
2018-03-15T11:40:37.930Z,51.01
2018-03-15T11:41:37.929Z,50.72
2018-03-15T11:42:37.930Z,50.81
2018-03-15T11:43:37.928Z,50.65
2018-03-15T11:44:37.928Z,51.32
2018-03-15T11:45:37.928Z,50.91
2018-03-15T11:46:37.927Z,51.10
2018-03-15T11:47:37.930Z,50.74
2018-03-15T11:48:37.928Z,50.84
2018-03-15T11:49:37.928Z,51.03
2018-03-15T11:50:37.975Z,50.84
2018-03-15T11:51:37.928Z,51.25
2018-03-15T11:52:37.928Z,50.48
2018-03-15T11:53:37.926Z,50.77
2018-03-15T11:54:37.932Z,49.84
2018-03-15T11:55:37.922Z,49.84
2018-03-15T11:56:37.925Z,49.16
2018-03-15T11:57:37.920Z,48.69
2018-03-15T11:58:37.919Z,48.49
2018-03-15T11:59:37.928Z,48.66
2018-03-15T12:00:37.944Z,48.28
2018-03-15T12:01:37.944Z,48.18
2018-03-15T12:02:37.924Z,47.99
2018-03-15T12:03:37.919Z,47.51
2018-03-15T12:04:37.918Z,48.07
2018-03-15T12:05:37.918Z,47.97
2018-03-15T12:06:37.919Z,48.25
2018-03-15T12:07:37.991Z,48.16
2018-03-15T12:08:37.917Z,48.25
2018-03-15T12:09:37.917Z,48.16
2018-03-15T12:10:37.916Z,48.04
2018-03-15T12:11:37.921Z,48.23
2018-03-15T12:12:37.919Z,48.42
2018-03-15T12:13:37.919Z,48.61
2018-03-15T12:14:37.919Z,48.71
2018-03-15T12:15:37.918Z,48.61
2018-03-15T12:16:37.917Z,48.42
2018-03-15T12:17:37.920Z,48.80
2018-03-15T12:18:37.917Z,48.71
2018-03-15T12:19:37.913Z,48.71
2018-03-15T12:20:37.912Z,49.29
2018-03-15T12:21:37.911Z,49.09
2018-03-15T12:22:37.910Z,49.66
2018-03-15T12:23:37.911Z,49.48
2018-03-15T12:24:37.910Z,49.57
2018-03-15T12:25:37.908Z,49.57
2018-03-15T12:26:37.908Z,49.95
2018-03-15T12:27:37.910Z,49.76
2018-03-15T12:28:37.909Z,49.57
2018-03-15T12:29:37.909Z,49.57
2018-03-15T12:30:37.908Z,49.57
2018-03-15T12:31:37.907Z,49.57
2018-03-15T12:32:37.905Z,49.66
2018-03-15T12:33:37.905Z,49.95
2018-03-15T12:34:37.903Z,49.76
2018-03-15T12:35:37.900Z,49.95
2018-03-15T12:36:37.898Z,50.05
2018-03-15T12:37:37.897Z,49.86
2018-03-15T12:38:37.897Z,50.05
2018-03-15T12:39:37.894Z,49.95
2018-03-15T12:40:37.895Z,49.86
2018-03-15T12:41:37.892Z,49.57
2018-03-15T12:42:37.915Z,49.95
2018-03-15T12:43:37.894Z,50.15
2018-03-15T12:44:37.892Z,49.66
2018-03-15T12:45:37.891Z,50.05
2018-03-15T12:46:37.890Z,49.86
2018-03-15T12:47:37.890Z,49.93
2018-03-15T12:48:37.888Z,49.95
2018-03-15T12:49:37.886Z,50.43
2018-03-15T12:50:37.885Z,50.81
2018-03-15T12:51:37.884Z,50.91
2018-03-15T12:52:37.878Z,51.10